sensor_id;sensor_type;location;lat;lon;timestamp;pressure;altitude;pressure_sealevel;temperature;humidity
55217;BME280;41086;46.736;15.666;2023-09-19T00:00:18;97939.97;;;23.65;87.10
55217;BME280;41086;46.736;15.666;2023-09-19T00:02:55;97938.63;;;23.48;87.89
55217;BME280;41086;46.736;15.666;2023-09-19T00:05:26;97934.03;;;23.41;88.96
55217;BME280;41086;46.736;15.666;2023-09-19T00:07:56;97938.19;;;23.44;88.89
55217;BME280;41086;46.736;15.666;2023-09-19T00:10:26;97941.47;;;23.33;88.24
55217;BME280;41086;46.736;15.666;2023-09-19T00:12:54;97939.75;;;23.25;89.87
55217;BME280;41086;46.736;15.666;2023-09-19T00:15:25;97933.25;;;23.13;91.19
55217;BME280;41086;46.736;15.666;2023-09-19T00:17:52;97929.59;;;23.34;90.73
55217;BME280;41086;46.736;15.666;2023-09-19T00:20:19;97934.75;;;23.22;92.59
55217;BME280;41086;46.736;15.666;2023-09-19T00:22:50;97938.50;;;23.21;91.88
55217;BME280;41086;46.736;15.666;2023-09-19T00:25:19;97934.66;;;23.09;91.16
55217;BME280;41086;46.736;15.666;2023-09-19T00:27:47;97939.94;;;22.95;93.21
55217;BME280;41086;46.736;15.666;2023-09-19T00:30:17;97949.91;;;23.16;92.03
55217;BME280;41086;46.736;15.666;2023-09-19T00:32:49;97955.81;;;22.98;94.06
55217;BME280;41086;46.736;15.666;2023-09-19T00:35:21;97949.00;;;23.09;94.40
55217;BME280;41086;46.736;15.666;2023-09-19T00:37:53;97942.88;;;23.29;92.77
55217;BME280;41086;46.736;15.666;2023-09-19T00:40:20;97949.25;;;23.49;90.57
55217;BME280;41086;46.736;15.666;2023-09-19T00:42:48;97949.50;;;23.61;88.95
55217;BME280;41086;46.736;15.666;2023-09-19T00:45:16;97943.31;;;23.67;88.85
55217;BME280;41086;46.736;15.666;2023-09-19T00:47:47;97957.03;;;23.65;89.74
55217;BME280;41086;46.736;15.666;2023-09-19T00:50:20;97955.09;;;23.53;90.56
55217;BME280;41086;46.736;15.666;2023-09-19T00:52:50;97958.69;;;23.66;90.29
55217;BME280;41086;46.736;15.666;2023-09-19T00:55:20;97959.63;;;23.45;91.92
55217;BME280;41086;46.736;15.666;2023-09-19T00:57:47;97955.53;;;23.56;91.36
55217;BME280;41086;46.736;15.666;2023-09-19T01:00:17;97963.84;;;23.55;91.81
55217;BME280;41086;46.736;15.666;2023-09-19T01:02:46;97969.38;;;23.40;93.06
55217;BME280;41086;46.736;15.666;2023-09-19T01:05:14;97971.72;;;23.50;92.36
55217;BME280;41086;46.736;15.666;2023-09-19T01:07:41;97972.56;;;23.15;95.83
55217;BME280;41086;46.736;15.666;2023-09-19T01:10:11;97971.63;;;23.36;94.58
55217;BME280;41086;46.736;15.666;2023-09-19T01:12:51;97973.09;;;23.39;94.36
55217;BME280;41086;46.736;15.666;2023-09-19T01:29:49;97973.00;;;23.60;93.52
55217;BME280;41086;46.736;15.666;2023-09-19T01:32:18;97981.84;;;23.34;95.43
55217;BME280;41086;46.736;15.666;2023-09-19T01:34:56;97975.69;;;23.19;98.07
55217;BME280;41086;46.736;15.666;2023-09-19T01:37:25;97969.81;;;22.87;100.00
55217;BME280;41086;46.736;15.666;2023-09-19T01:40:02;97985.19;;;22.59;100.00
55217;BME280;41086;46.736;15.666;2023-09-19T01:51:05;97990.63;;;22.93;100.00
55217;BME280;41086;46.736;15.666;2023-09-19T01:56:32;97988.22;;;22.77;100.00
55217;BME280;41086;46.736;15.666;2023-09-19T01:59:07;97989.41;;;22.68;100.00
55217;BME280;41086;46.736;15.666;2023-09-19T02:01:36;97997.56;;;22.74;100.00
55217;BME280;41086;46.736;15.666;2023-09-19T02:04:04;97998.28;;;22.83;100.00
55217;BME280;41086;46.736;15.666;2023-09-19T02:06:31;98003.81;;;22.96;99.85
55217;BME280;41086;46.736;15.666;2023-09-19T02:09:00;98001.50;;;23.21;97.58
55217;BME280;41086;46.736;15.666;2023-09-19T02:11:27;97997.31;;;23.19;98.81
55217;BME280;41086;46.736;15.666;2023-09-19T02:13:55;98004.78;;;23.17;98.54
55217;BME280;41086;46.736;15.666;2023-09-19T02:16:22;98003.97;;;23.16;98.97
55217;BME280;41086;46.736;15.666;2023-09-19T02:18:49;98011.63;;;22.91;100.00
55217;BME280;41086;46.736;15.666;2023-09-19T02:21:17;98008.88;;;22.85;100.00
55217;BME280;41086;46.736;15.666;2023-09-19T02:23:44;98019.94;;;22.90;100.00
55217;BME280;41086;46.736;15.666;2023-09-19T02:26:13;98022.88;;;22.95;100.00
55217;BME280;41086;46.736;15.666;2023-09-19T02:28:40;98028.81;;;23.05;100.00
55217;BME280;41086;46.736;15.666;2023-09-19T02:31:08;98038.16;;;23.03;100.00
55217;BME280;41086;46.736;15.666;2023-09-19T02:33:34;98036.78;;;22.92;100.00
55217;BME280;41086;46.736;15.666;2023-09-19T02:36:03;98039.31;;;22.72;100.00
55217;BME280;41086;46.736;15.666;2023-09-19T02:38:32;98034.53;;;22.74;100.00
55217;BME280;41086;46.736;15.666;2023-09-19T02:40:59;98031.91;;;22.81;100.00
55217;BME280;41086;46.736;15.666;2023-09-19T02:43:27;98034.25;;;22.90;100.00
55217;BME280;41086;46.736;15.666;2023-09-19T02:45:54;98040.47;;;22.84;100.00
55217;BME280;41086;46.736;15.666;2023-09-19T02:48:21;98055.31;;;22.73;100.00
55217;BME280;41086;46.736;15.666;2023-09-19T02:50:51;98052.69;;;22.59;100.00
55217;BME280;41086;46.736;15.666;2023-09-19T02:53:18;98054.19;;;22.10;100.00
55217;BME280;41086;46.736;15.666;2023-09-19T02:55:48;98068.34;;;21.97;100.00
55217;BME280;41086;46.736;15.666;2023-09-19T02:58:15;98073.66;;;21.76;100.00
55217;BME280;41086;46.736;15.666;2023-09-19T03:00:43;98078.00;;;21.77;100.00
55217;BME280;41086;46.736;15.666;2023-09-19T03:03:15;98080.63;;;21.70;100.00
55217;BME280;41086;46.736;15.666;2023-09-19T03:05:45;98082.94;;;22.03;100.00
55217;BME280;41086;46.736;15.666;2023-09-19T03:08:16;98084.03;;;22.38;100.00
55217;BME280;41086;46.736;15.666;2023-09-19T03:10:46;98082.88;;;22.47;100.00
55217;BME280;41086;46.736;15.666;2023-09-19T03:13:14;98085.44;;;22.55;100.00
55217;BME280;41086;46.736;15.666;2023-09-19T03:15:42;98072.59;;;22.57;100.00
55217;BME280;41086;46.736;15.666;2023-09-19T03:18:22;98054.22;;;22.46;100.00
55217;BME280;41086;46.736;15.666;2023-09-19T03:20:54;98077.69;;;22.46;100.00
55217;BME280;41086;46.736;15.666;2023-09-19T03:23:23;98070.47;;;22.31;100.00
55217;BME280;41086;46.736;15.666;2023-09-19T03:25:50;98066.97;;;22.01;100.00
55217;BME280;41086;46.736;15.666;2023-09-19T03:28:17;98074.78;;;21.96;100.00
55217;BME280;41086;46.736;15.666;2023-09-19T03:30:44;98084.91;;;21.64;100.00
55217;BME280;41086;46.736;15.666;2023-09-19T03:33:12;98079.97;;;21.53;100.00
55217;BME280;41086;46.736;15.666;2023-09-19T03:35:41;98085.47;;;21.60;100.00
55217;BME280;41086;46.736;15.666;2023-09-19T03:38:07;98088.25;;;21.52;100.00
55217;BME280;41086;46.736;15.666;2023-09-19T03:40:34;98082.75;;;21.45;100.00
55217;BME280;41086;46.736;15.666;2023-09-19T03:43:04;98086.75;;;21.49;100.00
55217;BME280;41086;46.736;15.666;2023-09-19T03:45:31;98098.94;;;21.60;100.00
55217;BME280;41086;46.736;15.666;2023-09-19T03:47:58;98100.88;;;21.51;100.00
55217;BME280;41086;46.736;15.666;2023-09-19T03:50:25;98105.44;;;21.28;100.00
55217;BME280;41086;46.736;15.666;2023-09-19T03:52:56;98113.69;;;21.11;100.00
55217;BME280;41086;46.736;15.666;2023-09-19T03:55:23;98116.28;;;21.05;100.00
55217;BME280;41086;46.736;15.666;2023-09-19T03:57:50;98119.38;;;21.16;100.00
55217;BME280;41086;46.736;15.666;2023-09-19T04:00:17;98118.72;;;20.91;100.00
55217;BME280;41086;46.736;15.666;2023-09-19T04:02:48;98129.19;;;20.63;100.00
55217;BME280;41086;46.736;15.666;2023-09-19T04:05:15;98128.06;;;20.57;100.00
55217;BME280;41086;46.736;15.666;2023-09-19T04:07:45;98126.75;;;20.76;100.00
55217;BME280;41086;46.736;15.666;2023-09-19T04:10:12;98122.25;;;20.92;100.00
55217;BME280;41086;46.736;15.666;2023-09-19T04:12:50;98135.72;;;20.69;100.00
55217;BME280;41086;46.736;15.666;2023-09-19T04:15:17;98148.41;;;20.83;100.00
55217;BME280;41086;46.736;15.666;2023-09-19T04:17:44;98149.53;;;20.66;100.00
55217;BME280;41086;46.736;15.666;2023-09-19T04:20:11;98154.41;;;20.62;100.00
55217;BME280;41086;46.736;15.666;2023-09-19T04:22:41;98162.28;;;20.72;100.00
55217;BME280;41086;46.736;15.666;2023-09-19T04:25:08;98155.03;;;20.72;100.00
55217;BME280;41086;46.736;15.666;2023-09-19T04:27:34;98165.38;;;20.61;100.00
55217;BME280;41086;46.736;15.666;2023-09-19T04:30:01;98168.91;;;21.15;100.00
55217;BME280;41086;46.736;15.666;2023-09-19T04:32:30;98177.19;;;20.83;100.00
55217;BME280;41086;46.736;15.666;2023-09-19T04:34:59;98190.00;;;20.80;100.00
55217;BME280;41086;46.736;15.666;2023-09-19T04:37:28;98191.50;;;20.83;100.00
55217;BME280;41086;46.736;15.666;2023-09-19T04:39:55;98194.25;;;20.75;100.00
55217;BME280;41086;46.736;15.666;2023-09-19T04:42:22;98183.19;;;21.16;100.00
55217;BME280;41086;46.736;15.666;2023-09-19T04:44:51;98184.09;;;21.31;100.00
55217;BME280;41086;46.736;15.666;2023-09-19T04:47:19;98196.28;;;21.65;100.00
55217;BME280;41086;46.736;15.666;2023-09-19T04:49:48;98208.72;;;21.51;100.00
55217;BME280;41086;46.736;15.666;2023-09-19T04:52:15;98213.50;;;21.64;100.00
55217;BME280;41086;46.736;15.666;2023-09-19T04:54:42;98212.53;;;21.80;100.00
55217;BME280;41086;46.736;15.666;2023-09-19T04:57:09;98208.13;;;21.64;100.00
55217;BME280;41086;46.736;15.666;2023-09-19T04:59:36;98203.94;;;21.61;100.00
55217;BME280;41086;46.736;15.666;2023-09-19T05:02:03;98190.31;;;21.55;100.00
55217;BME280;41086;46.736;15.666;2023-09-19T05:04:30;98194.41;;;21.51;100.00
55217;BME280;41086;46.736;15.666;2023-09-19T05:06:57;98196.84;;;21.14;100.00
55217;BME280;41086;46.736;15.666;2023-09-19T05:09:23;98208.03;;;21.03;100.00
55217;BME280;41086;46.736;15.666;2023-09-19T05:11:51;98211.75;;;21.02;100.00
55217;BME280;41086;46.736;15.666;2023-09-19T05:14:19;98215.78;;;21.29;100.00
55217;BME280;41086;46.736;15.666;2023-09-19T05:16:47;98213.75;;;21.54;100.00
55217;BME280;41086;46.736;15.666;2023-09-19T05:19:14;98215.69;;;21.45;100.00
55217;BME280;41086;46.736;15.666;2023-09-19T05:21:41;98212.63;;;21.49;100.00
55217;BME280;41086;46.736;15.666;2023-09-19T05:24:08;98216.91;;;21.35;100.00
55217;BME280;41086;46.736;15.666;2023-09-19T05:26:37;98209.66;;;21.35;100.00
55217;BME280;41086;46.736;15.666;2023-09-19T05:29:03;98202.91;;;21.16;100.00
55217;BME280;41086;46.736;15.666;2023-09-19T05:31:31;98195.59;;;21.25;100.00
55217;BME280;41086;46.736;15.666;2023-09-19T05:33:58;98207.81;;;21.13;100.00
55217;BME280;41086;46.736;15.666;2023-09-19T05:36:27;98216.78;;;21.05;100.00
55217;BME280;41086;46.736;15.666;2023-09-19T05:38:56;98211.47;;;21.20;100.00
55217;BME280;41086;46.736;15.666;2023-09-19T05:41:23;98226.28;;;21.47;100.00
55217;BME280;41086;46.736;15.666;2023-09-19T05:43:50;98224.66;;;21.61;100.00
55217;BME280;41086;46.736;15.666;2023-09-19T05:46:17;98230.97;;;21.68;100.00
55217;BME280;41086;46.736;15.666;2023-09-19T05:48:44;98234.50;;;21.68;100.00
55217;BME280;41086;46.736;15.666;2023-09-19T05:51:11;98237.34;;;21.75;100.00
55217;BME280;41086;46.736;15.666;2023-09-19T05:53:37;98238.00;;;21.77;100.00
55217;BME280;41086;46.736;15.666;2023-09-19T05:56:05;98239.75;;;21.70;100.00
55217;BME280;41086;46.736;15.666;2023-09-19T05:58:31;98240.03;;;21.75;100.00
55217;BME280;41086;46.736;15.666;2023-09-19T06:00:59;98246.66;;;21.87;100.00
55217;BME280;41086;46.736;15.666;2023-09-19T06:03:25;98247.50;;;21.88;100.00
55217;BME280;41086;46.736;15.666;2023-09-19T06:05:52;98249.28;;;21.96;100.00
55217;BME280;41086;46.736;15.666;2023-09-19T06:08:23;98247.34;;;22.04;100.00
55217;BME280;41086;46.736;15.666;2023-09-19T06:10:50;98248.47;;;22.10;100.00
55217;BME280;41086;46.736;15.666;2023-09-19T06:13:18;98237.75;;;22.17;100.00
55217;BME280;41086;46.736;15.666;2023-09-19T06:15:46;98228.50;;;22.19;100.00
55217;BME280;41086;46.736;15.666;2023-09-19T06:18:13;98233.53;;;22.22;100.00
55217;BME280;41086;46.736;15.666;2023-09-19T06:20:47;98236.97;;;22.31;100.00
55217;BME280;41086;46.736;15.666;2023-09-19T06:23:14;98234.75;;;22.34;100.00
55217;BME280;41086;46.736;15.666;2023-09-19T06:25:41;98236.97;;;22.31;100.00
55217;BME280;41086;46.736;15.666;2023-09-19T06:28:09;98230.56;;;22.32;100.00
55217;BME280;41086;46.736;15.666;2023-09-19T06:30:38;98240.63;;;22.23;100.00
55217;BME280;41086;46.736;15.666;2023-09-19T06:33:09;98231.47;;;22.24;100.00
55217;BME280;41086;46.736;15.666;2023-09-19T06:35:41;98232.69;;;22.22;100.00
55217;BME280;41086;46.736;15.666;2023-09-19T06:38:08;98233.72;;;22.21;100.00
55217;BME280;41086;46.736;15.666;2023-09-19T06:40:35;98239.94;;;22.21;100.00
55217;BME280;41086;46.736;15.666;2023-09-19T06:43:02;98256.84;;;22.15;100.00
55217;BME280;41086;46.736;15.666;2023-09-19T06:45:29;98275.25;;;22.11;100.00
55217;BME280;41086;46.736;15.666;2023-09-19T06:47:55;98276.34;;;22.25;100.00
55217;BME280;41086;46.736;15.666;2023-09-19T06:50:26;98277.53;;;22.23;100.00
55217;BME280;41086;46.736;15.666;2023-09-19T06:52:55;98285.75;;;22.29;100.00
55217;BME280;41086;46.736;15.666;2023-09-19T06:55:24;98288.75;;;22.34;100.00
55217;BME280;41086;46.736;15.666;2023-09-19T06:57:52;98298.78;;;22.41;100.00
55217;BME280;41086;46.736;15.666;2023-09-19T07:00:21;98307.34;;;22.44;100.00
55217;BME280;41086;46.736;15.666;2023-09-19T07:03:01;98306.06;;;22.40;100.00
55217;BME280;41086;46.736;15.666;2023-09-19T07:05:31;98309.31;;;22.35;100.00
55217;BME280;41086;46.736;15.666;2023-09-19T07:08:01;98316.84;;;22.40;100.00
55217;BME280;41086;46.736;15.666;2023-09-19T07:10:29;98328.94;;;22.29;100.00
55217;BME280;41086;46.736;15.666;2023-09-19T07:13:03;98329.19;;;22.20;100.00
55217;BME280;41086;46.736;15.666;2023-09-19T07:15:32;98334.81;;;22.33;100.00
55217;BME280;41086;46.736;15.666;2023-09-19T07:18:06;98344.31;;;22.29;100.00
55217;BME280;41086;46.736;15.666;2023-09-19T07:20:33;98342.81;;;22.26;100.00
55217;BME280;41086;46.736;15.666;2023-09-19T07:23:01;98351.38;;;22.30;100.00
55217;BME280;41086;46.736;15.666;2023-09-19T07:25:28;98360.13;;;22.32;100.00
55217;BME280;41086;46.736;15.666;2023-09-19T07:27:55;98360.78;;;22.34;100.00
55217;BME280;41086;46.736;15.666;2023-09-19T07:30:22;98370.72;;;22.33;100.00
55217;BME280;41086;46.736;15.666;2023-09-19T07:32:50;98367.03;;;22.49;100.00
55217;BME280;41086;46.736;15.666;2023-09-19T07:35:16;98376.19;;;22.63;100.00
55217;BME280;41086;46.736;15.666;2023-09-19T07:37:46;98380.09;;;22.61;100.00
55217;BME280;41086;46.736;15.666;2023-09-19T07:40:17;98387.63;;;22.50;100.00
55217;BME280;41086;46.736;15.666;2023-09-19T07:42:44;98385.84;;;22.57;100.00
55217;BME280;41086;46.736;15.666;2023-09-19T07:45:13;98379.66;;;22.72;100.00
55217;BME280;41086;46.736;15.666;2023-09-19T07:47:47;98391.19;;;22.66;100.00
55217;BME280;41086;46.736;15.666;2023-09-19T07:50:15;98390.53;;;22.64;100.00
55217;BME280;41086;46.736;15.666;2023-09-19T07:52:43;98383.53;;;22.54;100.00
55217;BME280;41086;46.736;15.666;2023-09-19T07:55:10;98389.38;;;22.58;100.00
55217;BME280;41086;46.736;15.666;2023-09-19T07:57:38;98392.69;;;22.83;100.00
55217;BME280;41086;46.736;15.666;2023-09-19T08:00:05;98392.97;;;23.18;100.00
55217;BME280;41086;46.736;15.666;2023-09-19T08:02:37;98391.38;;;23.38;100.00
55217;BME280;41086;46.736;15.666;2023-09-19T08:05:06;98403.19;;;23.52;100.00
55217;BME280;41086;46.736;15.666;2023-09-19T08:07:40;98407.22;;;23.56;100.00
55217;BME280;41086;46.736;15.666;2023-09-19T08:10:08;98415.75;;;23.75;100.00
55217;BME280;41086;46.736;15.666;2023-09-19T08:12:39;98417.34;;;23.84;100.00
55217;BME280;41086;46.736;15.666;2023-09-19T08:15:17;98424.13;;;24.16;98.73
55217;BME280;41086;46.736;15.666;2023-09-19T08:17:44;98423.84;;;24.32;97.99
55217;BME280;41086;46.736;15.666;2023-09-19T08:20:11;98418.84;;;24.79;96.05
55217;BME280;41086;46.736;15.666;2023-09-19T08:22:53;98419.44;;;25.09;93.20
55217;BME280;41086;46.736;15.666;2023-09-19T08:25:22;98415.75;;;25.17;90.23
55217;BME280;41086;46.736;15.666;2023-09-19T08:27:50;98416.97;;;25.14;91.75
55217;BME280;41086;46.736;15.666;2023-09-19T08:30:19;98418.25;;;25.18;90.16
55217;BME280;41086;46.736;15.666;2023-09-19T08:32:57;98415.75;;;25.17;90.17
55217;BME280;41086;46.736;15.666;2023-09-19T08:35:26;98408.59;;;25.09;90.44
55217;BME280;41086;46.736;15.666;2023-09-19T08:37:53;98405.56;;;25.19;90.87
55217;BME280;41086;46.736;15.666;2023-09-19T08:40:22;98419.38;;;25.31;88.25
55217;BME280;41086;46.736;15.666;2023-09-19T08:42:53;98416.50;;;25.46;88.72
55217;BME280;41086;46.736;15.666;2023-09-19T08:45:21;98421.16;;;25.52;88.96
55217;BME280;41086;46.736;15.666;2023-09-19T08:50:28;98419.31;;;25.65;85.35
55217;BME280;41086;46.736;15.666;2023-09-19T08:52:56;98417.25;;;25.81;84.38
55217;BME280;41086;46.736;15.666;2023-09-19T08:55:28;98421.31;;;26.05;85.49
55217;BME280;41086;46.736;15.666;2023-09-19T08:58:03;98425.13;;;26.24;83.30
55217;BME280;41086;46.736;15.666;2023-09-19T09:00:31;98425.75;;;26.33;83.33
55217;BME280;41086;46.736;15.666;2023-09-19T09:02:58;98436.63;;;26.46;82.82
55217;BME280;41086;46.736;15.666;2023-09-19T09:05:27;98442.06;;;26.46;81.20
55217;BME280;41086;46.736;15.666;2023-09-19T09:07:55;98446.00;;;26.30;80.69
55217;BME280;41086;46.736;15.666;2023-09-19T09:10:23;98446.44;;;26.34;77.17
55217;BME280;41086;46.736;15.666;2023-09-19T09:12:51;98443.50;;;26.28;81.67
55217;BME280;41086;46.736;15.666;2023-09-19T09:15:21;98449.63;;;26.64;80.19
55217;BME280;41086;46.736;15.666;2023-09-19T09:17:50;98447.31;;;26.94;79.88
55217;BME280;41086;46.736;15.666;2023-09-19T09:20:20;98448.97;;;26.95;78.14
55217;BME280;41086;46.736;15.666;2023-09-19T09:22:54;98449.81;;;26.95;76.92
55217;BME280;41086;46.736;15.666;2023-09-19T09:25:22;98444.31;;;27.35;76.69
55217;BME280;41086;46.736;15.666;2023-09-19T09:27:59;98433.91;;;26.99;74.78
55217;BME280;41086;46.736;15.666;2023-09-19T09:30:34;98446.47;;;26.73;73.81
55217;BME280;41086;46.736;15.666;2023-09-19T09:33:09;98446.72;;;26.52;70.63
55217;BME280;41086;46.736;15.666;2023-09-19T09:35:56;98448.06;;;26.01;76.62
55217;BME280;41086;46.736;15.666;2023-09-19T09:38:26;98438.28;;;26.40;74.48
55217;BME280;41086;46.736;15.666;2023-09-19T09:40:55;98447.53;;;26.66;74.14
55217;BME280;41086;46.736;15.666;2023-09-19T09:43:33;98443.38;;;26.63;78.07
55217;BME280;41086;46.736;15.666;2023-09-19T09:46:18;98446.03;;;27.03;74.87
55217;BME280;41086;46.736;15.666;2023-09-19T09:48:59;98447.50;;;27.12;72.69
55217;BME280;41086;46.736;15.666;2023-09-19T09:51:49;98449.81;;;27.02;72.60
55217;BME280;41086;46.736;15.666;2023-09-19T09:54:29;98456.47;;;27.13;70.67
55217;BME280;41086;46.736;15.666;2023-09-19T09:57:09;98454.38;;;27.08;70.37
55217;BME280;41086;46.736;15.666;2023-09-19T09:59:57;98453.94;;;27.11;71.76
55217;BME280;41086;46.736;15.666;2023-09-19T10:02:44;98445.38;;;27.28;70.97
55217;BME280;41086;46.736;15.666;2023-09-19T10:05:14;98447.25;;;27.27;69.04
55217;BME280;41086;46.736;15.666;2023-09-19T10:07:48;98447.22;;;27.40;67.30
55217;BME280;41086;46.736;15.666;2023-09-19T10:10:39;98450.88;;;27.73;65.71
55217;BME280;41086;46.736;15.666;2023-09-19T10:13:08;98447.66;;;27.96;63.29
55217;BME280;41086;46.736;15.666;2023-09-19T10:15:39;98441.97;;;27.97;60.29
55217;BME280;41086;46.736;15.666;2023-09-19T10:18:19;98441.94;;;28.36;58.75
55217;BME280;41086;46.736;15.666;2023-09-19T10:20:47;98438.31;;;28.42;57.57
55217;BME280;41086;46.736;15.666;2023-09-19T10:23:18;98434.84;;;28.35;58.15
55217;BME280;41086;46.736;15.666;2023-09-19T10:25:52;98447.41;;;28.67;57.88
55217;BME280;41086;46.736;15.666;2023-09-19T10:28:21;98448.19;;;28.75;58.35
55217;BME280;41086;46.736;15.666;2023-09-19T10:30:52;98447.00;;;28.64;59.33
55217;BME280;41086;46.736;15.666;2023-09-19T10:33:21;98451.31;;;28.71;58.09
55217;BME280;41086;46.736;15.666;2023-09-19T10:35:50;98451.94;;;28.48;58.03
55217;BME280;41086;46.736;15.666;2023-09-19T10:38:24;98452.22;;;28.02;61.28
55217;BME280;41086;46.736;15.666;2023-09-19T10:40:52;98449.34;;;27.90;62.09
55217;BME280;41086;46.736;15.666;2023-09-19T10:43:21;98449.88;;;28.12;61.38
55217;BME280;41086;46.736;15.666;2023-09-19T10:45:49;98448.22;;;28.68;60.02
55217;BME280;41086;46.736;15.666;2023-09-19T10:48:19;98448.44;;;29.16;58.71
55217;BME280;41086;46.736;15.666;2023-09-19T10:50:53;98450.75;;;28.69;56.50
55217;BME280;41086;46.736;15.666;2023-09-19T10:53:27;98454.22;;;29.27;56.12
55217;BME280;41086;46.736;15.666;2023-09-19T10:55:59;98454.69;;;28.73;55.86
55217;BME280;41086;46.736;15.666;2023-09-19T10:58:28;98447.16;;;28.94;55.47
55217;BME280;41086;46.736;15.666;2023-09-19T11:00:57;98446.72;;;28.97;53.25
55217;BME280;41086;46.736;15.666;2023-09-19T11:03:39;98443.22;;;29.52;53.83
55217;BME280;41086;46.736;15.666;2023-09-19T11:06:17;98446.47;;;29.42;51.79
55217;BME280;41086;46.736;15.666;2023-09-19T11:09:04;98438.53;;;30.08;50.39
55217;BME280;41086;46.736;15.666;2023-09-19T11:11:49;98441.47;;;30.36;51.05
55217;BME280;41086;46.736;15.666;2023-09-19T11:30:52;98431.53;;;29.26;49.85
55217;BME280;41086;46.736;15.666;2023-09-19T11:33:29;98435.84;;;29.15;49.51
55217;BME280;41086;46.736;15.666;2023-09-19T11:36:12;98422.50;;;29.26;48.52
55217;BME280;41086;46.736;15.666;2023-09-19T11:43:53;98409.59;;;30.84;44.78
55217;BME280;41086;46.736;15.666;2023-09-19T11:46:27;98405.88;;;31.25;43.14
55217;BME280;41086;46.736;15.666;2023-09-19T11:49:07;98404.91;;;31.43;42.43
55217;BME280;41086;46.736;15.666;2023-09-19T11:51:41;98405.97;;;31.19;41.99
55217;BME280;41086;46.736;15.666;2023-09-19T11:54:13;98412.94;;;31.62;40.58
55217;BME280;41086;46.736;15.666;2023-09-19T11:56:49;98410.84;;;31.92;39.76
55217;BME280;41086;46.736;15.666;2023-09-19T11:59:27;98411.00;;;31.74;41.08
55217;BME280;41086;46.736;15.666;2023-09-19T12:01:56;98403.84;;;31.44;41.54
55217;BME280;41086;46.736;15.666;2023-09-19T12:04:43;98405.97;;;31.42;40.83
55217;BME280;41086;46.736;15.666;2023-09-19T12:07:13;98406.34;;;31.10;39.58
55217;BME280;41086;46.736;15.666;2023-09-19T12:10:03;98409.72;;;31.65;42.42
55217;BME280;41086;46.736;15.666;2023-09-19T12:12:31;98408.88;;;31.64;41.15
55217;BME280;41086;46.736;15.666;2023-09-19T12:14:59;98410.91;;;31.97;40.01
55217;BME280;41086;46.736;15.666;2023-09-19T12:17:36;98405.03;;;32.06;39.28
55217;BME280;41086;46.736;15.666;2023-09-19T12:20:03;98410.47;;;32.17;38.18
55217;BME280;41086;46.736;15.666;2023-09-19T12:22:42;98402.00;;;32.19;38.96
55217;BME280;41086;46.736;15.666;2023-09-19T12:25:10;98393.03;;;31.66;39.16
55217;BME280;41086;46.736;15.666;2023-09-19T12:27:45;98399.63;;;31.53;38.93
55217;BME280;41086;46.736;15.666;2023-09-19T12:30:19;98402.97;;;31.96;38.74
55217;BME280;41086;46.736;15.666;2023-09-19T12:32:54;98407.78;;;32.51;38.03
55217;BME280;41086;46.736;15.666;2023-09-19T12:35:30;98403.44;;;32.38;37.62
55217;BME280;41086;46.736;15.666;2023-09-19T12:37:57;98406.63;;;32.47;38.24
55217;BME280;41086;46.736;15.666;2023-09-19T12:40:25;98402.09;;;32.41;37.85
55217;BME280;41086;46.736;15.666;2023-09-19T12:42:57;98401.75;;;31.63;37.36
55217;BME280;41086;46.736;15.666;2023-09-19T12:45:31;98407.22;;;31.63;37.80
55217;BME280;41086;46.736;15.666;2023-09-19T12:48:23;98404.56;;;31.04;40.04
55217;BME280;41086;46.736;15.666;2023-09-19T12:51:07;98408.34;;;30.14;40.90
55217;BME280;41086;46.736;15.666;2023-09-19T12:53:37;98417.72;;;29.76;41.98
55217;BME280;41086;46.736;15.666;2023-09-19T12:56:12;98416.53;;;30.02;42.07
55217;BME280;41086;46.736;15.666;2023-09-19T13:01:23;98406.69;;;30.13;41.47
55217;BME280;41086;46.736;15.666;2023-09-19T13:04:13;98409.16;;;30.45;41.57
55217;BME280;41086;46.736;15.666;2023-09-19T13:06:49;98419.94;;;29.98;40.24
55217;BME280;41086;46.736;15.666;2023-09-19T13:09:18;98416.78;;;30.66;41.01
55217;BME280;41086;46.736;15.666;2023-09-19T13:11:47;98417.88;;;30.77;41.35
55217;BME280;41086;46.736;15.666;2023-09-19T13:17:06;98415.84;;;30.73;40.16
55217;BME280;41086;46.736;15.666;2023-09-19T13:19:47;98421.16;;;31.62;39.11
55217;BME280;41086;46.736;15.666;2023-09-19T13:22:43;98418.84;;;30.83;39.24
55217;BME280;41086;46.736;15.666;2023-09-19T13:25:16;98408.00;;;30.11;40.09
55217;BME280;41086;46.736;15.666;2023-09-19T13:27:50;98416.13;;;30.95;40.73
55217;BME280;41086;46.736;15.666;2023-09-19T13:30:24;98419.25;;;30.33;40.67
55217;BME280;41086;46.736;15.666;2023-09-19T13:33:09;98416.25;;;30.22;41.68
55217;BME280;41086;46.736;15.666;2023-09-19T13:35:38;98419.19;;;30.75;41.54
55217;BME280;41086;46.736;15.666;2023-09-19T13:38:07;98420.41;;;31.02;40.94
55217;BME280;41086;46.736;15.666;2023-09-19T13:40:39;98417.47;;;31.68;40.02
55217;BME280;41086;46.736;15.666;2023-09-19T13:43:08;98424.59;;;32.09;39.93
55217;BME280;41086;46.736;15.666;2023-09-19T13:45:35;98423.78;;;32.42;39.03
55217;BME280;41086;46.736;15.666;2023-09-19T13:48:03;98420.91;;;32.04;38.26
55217;BME280;41086;46.736;15.666;2023-09-19T13:50:30;98424.13;;;32.46;38.30
55217;BME280;41086;46.736;15.666;2023-09-19T13:52:58;98410.03;;;32.54;37.83
55217;BME280;41086;46.736;15.666;2023-09-19T13:55:27;98402.75;;;32.14;38.42
55217;BME280;41086;46.736;15.666;2023-09-19T13:57:54;98396.31;;;32.54;37.96